createdAt,value
2022-09-25T00:00:00.139Z,77.30
2022-09-25T00:02:28.447Z,76.84
2022-09-25T00:04:56.640Z,75.09
2022-09-25T00:07:24.903Z,75.49
2022-09-25T00:09:53.047Z,74.74
2022-09-25T00:12:21.171Z,75.40
2022-09-25T00:14:50.004Z,75.36
2022-09-25T00:17:18.206Z,77.45
2022-09-25T00:19:51.966Z,76.93
2022-09-25T00:22:21.529Z,77.36
2022-09-25T00:24:50.692Z,77.21
2022-09-25T00:27:19.425Z,77.59
2022-09-25T00:29:47.740Z,77.50
2022-09-25T00:32:15.941Z,77.87
2022-09-25T00:34:44.289Z,77.22
2022-09-25T00:37:12.423Z,75.83
2022-09-25T00:39:40.593Z,76.06
2022-09-25T00:42:11.372Z,75.90
2022-09-25T00:44:48.403Z,77.00
2022-09-25T00:47:32.090Z,76.16
2022-09-25T00:50:02.030Z,76.62
2022-09-25T00:52:30.839Z,75.74
2022-09-25T00:55:05.448Z,76.72
2022-09-25T00:57:37.518Z,76.15
2022-09-25T01:00:09.649Z,75.45
2022-09-25T01:02:42.420Z,75.40
2022-09-25T01:05:15.505Z,77.09
2022-09-25T01:07:45.857Z,76.63
2022-09-25T01:10:15.119Z,77.27
2022-09-25T01:12:45.834Z,76.35
2022-09-25T01:15:15.179Z,77.32
2022-09-25T01:17:56.676Z,77.85
2022-09-25T01:20:36.675Z,77.57
2022-09-25T01:23:25.162Z,77.12
2022-09-25T01:26:00.550Z,77.59
2022-09-25T01:28:29.652Z,77.72
2022-09-25T01:31:01.956Z,77.17
2022-09-25T01:33:41.939Z,76.65
2022-09-25T01:36:15.401Z,76.63
2022-09-25T01:38:59.103Z,76.89
2022-09-25T01:41:30.617Z,77.48
2022-09-25T01:44:30.995Z,77.73
2022-09-25T01:47:10.200Z,75.90
2022-09-25T01:49:42.795Z,75.91
2022-09-25T01:52:14.308Z,77.08
2022-09-25T01:54:45.341Z,77.44
2022-09-25T01:57:19.447Z,78.85
2022-09-25T02:00:11.105Z,78.99
2022-09-25T02:03:08.674Z,78.36
2022-09-25T02:05:42.201Z,79.05
2022-09-25T02:08:21.089Z,78.97
2022-09-25T02:11:14.414Z,78.56
2022-09-25T02:13:54.393Z,77.85
2022-09-25T02:16:26.078Z,78.63
2022-09-25T02:19:13.238Z,78.62
2022-09-25T02:21:56.533Z,78.38
2022-09-25T02:24:37.462Z,78.69
2022-09-25T02:27:05.661Z,77.95
2022-09-25T02:29:33.816Z,78.19
2022-09-25T02:32:08.618Z,77.46
2022-09-25T02:34:54.221Z,77.39
2022-09-25T02:37:22.294Z,77.38
2022-09-25T02:39:52.962Z,76.87
2022-09-25T02:42:45.099Z,78.30
2022-09-25T02:45:25.473Z,76.68
2022-09-25T02:48:11.065Z,77.40
2022-09-25T02:50:42.277Z,77.63
2022-09-25T02:53:22.116Z,76.89
2022-09-25T02:56:03.334Z,77.42
2022-09-25T02:58:37.356Z,76.90
2022-09-25T03:01:07.421Z,77.62
2022-09-25T03:03:37.776Z,77.08
2022-09-25T03:06:06.932Z,78.25
2022-09-25T03:08:39.606Z,78.27
2022-09-25T03:11:09.208Z,77.31
2022-09-25T03:13:37.898Z,76.66
2022-09-25T03:16:26.409Z,76.76
2022-09-25T03:18:54.757Z,77.43
2022-09-25T03:21:22.898Z,77.53
2022-09-25T03:23:51.065Z,77.18
2022-09-25T03:26:19.199Z,78.01
2022-09-25T03:28:47.527Z,77.55
2022-09-25T03:31:15.843Z,77.46
2022-09-25T03:33:45.256Z,77.12
2022-09-25T03:36:13.352Z,76.88
2022-09-25T03:38:42.273Z,76.90
2022-09-25T03:41:11.230Z,77.75
2022-09-25T03:43:40.183Z,77.96
2022-09-25T03:46:10.004Z,77.49
2022-09-25T03:48:39.688Z,76.51
2022-09-25T03:51:08.110Z,76.94
2022-09-25T03:53:36.377Z,77.44
2022-09-25T03:56:05.864Z,77.76
2022-09-25T03:58:34.498Z,77.53
2022-09-25T04:01:03.077Z,77.73
2022-09-25T04:03:31.832Z,77.75
2022-09-25T04:06:01.404Z,77.83
2022-09-25T04:08:29.625Z,77.88
2022-09-25T04:10:59.747Z,78.34
2022-09-25T04:13:32.478Z,78.14
2022-09-25T04:16:01.649Z,78.12
2022-09-25T04:18:31.913Z,78.20
2022-09-25T04:21:00.903Z,77.70
2022-09-25T04:23:29.277Z,77.11
2022-09-25T04:25:57.926Z,77.98
2022-09-25T04:28:26.365Z,78.06
2022-09-25T04:30:54.630Z,77.86
2022-09-25T04:33:41.198Z,78.34
2022-09-25T04:36:09.941Z,78.39
2022-09-25T04:38:38.131Z,78.14
2022-09-25T04:41:08.277Z,78.43
2022-09-25T04:43:36.526Z,77.43
2022-09-25T04:46:06.021Z,77.61
2022-09-25T04:48:35.947Z,77.89
2022-09-25T04:51:04.673Z,77.36
2022-09-25T04:53:35.702Z,77.34
2022-09-25T04:56:06.559Z,76.72
2022-09-25T04:58:36.812Z,77.16
2022-09-25T05:01:06.269Z,76.60
2022-09-25T05:03:34.735Z,77.59
2022-09-25T05:06:02.977Z,77.48
2022-09-25T05:08:31.210Z,77.21
2022-09-25T05:10:59.393Z,76.37
2022-09-25T05:13:28.430Z,76.82
2022-09-25T05:15:56.700Z,77.38
2022-09-25T05:18:25.021Z,77.48
2022-09-25T05:20:54.418Z,77.50
2022-09-25T05:23:24.109Z,76.42
2022-09-25T05:25:56.898Z,77.06
2022-09-25T05:28:25.033Z,76.49
2022-09-25T05:30:53.672Z,77.56
2022-09-25T05:33:21.859Z,77.20
2022-09-25T05:35:49.983Z,76.96
2022-09-25T05:38:18.123Z,76.93
2022-09-25T05:40:46.284Z,76.79
2022-09-25T05:51:13.058Z,76.74
2022-09-25T05:53:41.230Z,76.76
2022-09-25T05:56:09.422Z,77.11
2022-09-25T05:58:38.240Z,76.79
2022-09-25T06:01:06.545Z,76.92
2022-09-25T06:03:35.143Z,77.52
2022-09-25T06:06:03.664Z,77.27
2022-09-25T06:08:32.220Z,76.34
2022-09-25T06:11:03.203Z,76.46
2022-09-25T06:13:34.919Z,75.92
2022-09-25T06:16:03.684Z,76.28
2022-09-25T06:18:33.366Z,76.49
2022-09-25T06:21:02.980Z,75.48
2022-09-25T06:23:31.454Z,75.30
2022-09-25T06:26:03.554Z,75.81
2022-09-25T06:28:32.181Z,75.61
2022-09-25T06:31:01.659Z,75.93
2022-09-25T06:33:30.261Z,75.79
2022-09-25T06:35:58.409Z,75.66
2022-09-25T06:38:26.576Z,75.67
2022-09-25T06:40:59.279Z,75.49
2022-09-25T06:43:28.785Z,75.60
2022-09-25T06:45:59.995Z,75.46
2022-09-25T06:48:28.312Z,75.48
2022-09-25T06:50:57.432Z,75.34
2022-09-25T06:57:11.887Z,75.08
2022-09-25T06:59:40.030Z,74.85
2022-09-25T07:02:27.696Z,74.20
2022-09-25T07:04:55.964Z,73.28
2022-09-25T07:07:24.336Z,72.59
2022-09-25T07:09:52.487Z,72.03
2022-09-25T07:12:22.169Z,71.31
2022-09-25T07:14:50.319Z,71.45
2022-09-25T07:17:18.433Z,71.67
2022-09-25T07:19:46.567Z,71.31
2022-09-25T07:22:14.665Z,70.12
2022-09-25T07:24:42.835Z,70.73
2022-09-25T07:27:10.960Z,70.81
2022-09-25T07:29:39.099Z,70.87
2022-09-25T07:32:07.283Z,70.27
2022-09-25T07:34:36.363Z,69.93
2022-09-25T07:37:04.565Z,69.41
2022-09-25T07:39:32.628Z,68.99
2022-09-25T07:42:00.653Z,68.44
2022-09-25T07:44:31.561Z,66.17
2022-09-25T07:47:02.766Z,65.81
2022-09-25T07:49:31.380Z,65.73
2022-09-25T07:51:59.806Z,64.34
2022-09-25T07:54:27.915Z,64.02
2022-09-25T07:56:56.181Z,64.47
2022-09-25T07:59:27.886Z,61.69
2022-09-25T08:01:56.112Z,61.34
2022-09-25T08:04:24.419Z,61.74
2022-09-25T08:06:52.581Z,59.26
2022-09-25T08:09:20.766Z,59.67
2022-09-25T08:11:48.995Z,58.98
2022-09-25T08:14:19.650Z,59.00
2022-09-25T08:16:50.327Z,56.15
2022-09-25T08:19:18.663Z,56.77
2022-09-25T08:21:46.832Z,57.37
2022-09-25T08:24:15.212Z,54.88
2022-09-25T08:26:43.771Z,55.98
2022-09-25T08:29:12.178Z,53.31
2022-09-25T08:31:40.849Z,53.01
2022-09-25T08:34:38.975Z,52.73
2022-09-25T08:36:58.829Z,54.22
2022-09-25T08:39:26.973Z,54.21
2022-09-25T08:41:55.631Z,54.43
2022-09-25T08:44:32.816Z,53.57
2022-09-25T08:47:26.122Z,51.49
2022-09-25T08:50:14.637Z,51.64
2022-09-25T08:52:46.212Z,50.79
2022-09-25T08:55:22.447Z,50.80
2022-09-25T08:57:55.658Z,50.66
2022-09-25T09:00:24.317Z,50.32
2022-09-25T09:02:57.498Z,50.21
2022-09-25T09:05:38.761Z,47.57
2022-09-25T09:08:14.738Z,47.92
2022-09-25T09:10:49.392Z,46.75
2022-09-25T09:13:29.734Z,47.92
2022-09-25T09:15:57.852Z,47.03
2022-09-25T09:18:27.029Z,47.38
2022-09-25T09:21:16.886Z,47.90
2022-09-25T09:23:53.841Z,48.51
2022-09-25T09:26:28.388Z,47.40
2022-09-25T09:28:56.519Z,49.20
2022-09-25T09:31:27.944Z,49.42
2022-09-25T09:34:05.282Z,49.41
2022-09-25T09:36:45.641Z,48.92
2022-09-25T09:39:27.000Z,49.25
2022-09-25T09:41:55.709Z,49.51
2022-09-25T09:44:35.797Z,49.04
2022-09-25T09:47:12.778Z,48.50
2022-09-25T09:49:51.416Z,48.14
2022-09-25T09:52:30.925Z,48.03
2022-09-25T09:55:11.269Z,48.05
2022-09-25T09:57:44.637Z,48.49
2022-09-25T10:00:20.352Z,48.44
2022-09-25T10:02:54.549Z,48.58
2022-09-25T10:05:26.821Z,48.44
2022-09-25T10:07:55.023Z,49.64
2022-09-25T10:10:28.296Z,50.80
2022-09-25T10:13:04.073Z,50.49
2022-09-25T10:15:36.746Z,50.56
2022-09-25T10:18:05.980Z,50.70
2022-09-25T10:20:40.029Z,50.24
2022-09-25T10:23:28.567Z,47.09
2022-09-25T10:25:56.703Z,47.50
2022-09-25T10:28:30.701Z,47.11
2022-09-25T10:31:00.153Z,48.07
2022-09-25T10:33:30.093Z,47.61
2022-09-25T10:35:58.579Z,46.98
2022-09-25T10:38:30.224Z,45.79
2022-09-25T10:41:00.501Z,46.62
2022-09-25T10:43:28.934Z,47.16
2022-09-25T10:46:07.960Z,46.51
2022-09-25T10:48:55.979Z,45.80
2022-09-25T10:51:24.651Z,45.77
2022-09-25T10:54:00.408Z,45.44
2022-09-25T10:57:17.399Z,45.05
2022-09-25T10:59:50.343Z,46.15
2022-09-25T11:02:42.993Z,46.42
2022-09-25T11:05:19.999Z,45.37
2022-09-25T11:07:52.517Z,45.02
2022-09-25T11:10:49.783Z,46.01
2022-09-25T11:13:21.291Z,45.43
2022-09-25T11:15:53.625Z,46.00
2022-09-25T11:18:36.218Z,46.48
2022-09-25T11:21:06.019Z,46.15
2022-09-25T11:23:46.179Z,46.82
2022-09-25T11:26:22.240Z,47.61
2022-09-25T11:28:58.090Z,48.15
2022-09-25T11:31:26.150Z,48.26
2022-09-25T11:34:00.771Z,48.53
2022-09-25T11:36:33.176Z,49.36
2022-09-25T11:39:40.902Z,49.97
2022-09-25T11:42:25.048Z,50.36
2022-09-25T11:45:10.499Z,50.69
2022-09-25T11:47:43.146Z,51.22
2022-09-25T11:50:15.164Z,50.96
2022-09-25T11:56:36.030Z,51.34
2022-09-25T11:59:13.621Z,51.32
2022-09-25T12:01:41.809Z,51.32
2022-09-25T12:04:28.556Z,50.88
2022-09-25T12:07:15.198Z,50.00
2022-09-25T12:09:58.543Z,50.03
2022-09-25T12:12:29.278Z,50.27
2022-09-25T12:15:03.585Z,50.34
2022-09-25T12:17:37.801Z,51.22
2022-09-25T12:20:19.066Z,51.41
2022-09-25T12:22:53.012Z,50.92
2022-09-25T12:25:36.159Z,51.22
2022-09-25T12:28:16.610Z,51.53
2022-09-25T12:31:07.847Z,51.89
2022-09-25T12:33:42.070Z,51.99
2022-09-25T12:36:17.311Z,52.34
2022-09-25T12:42:42.199Z,51.96
2022-09-25T12:45:20.398Z,52.09
2022-09-25T12:48:24.710Z,52.52
2022-09-25T12:51:02.772Z,52.42
2022-09-25T12:53:43.726Z,51.96
2022-09-25T12:56:14.717Z,51.94
2022-09-25T12:58:43.400Z,52.07
2022-09-25T13:01:40.943Z,52.28
2022-09-25T13:04:18.987Z,52.82
2022-09-25T13:06:49.829Z,52.77
2022-09-25T13:09:41.379Z,52.79
2022-09-25T13:12:32.762Z,53.14
2022-09-25T13:15:23.720Z,52.65
2022-09-25T13:17:51.938Z,52.50
2022-09-25T13:20:29.707Z,52.46
2022-09-25T13:22:57.790Z,51.60
2022-09-25T13:25:26.413Z,52.27
2022-09-25T13:27:55.031Z,53.02
2022-09-25T13:30:25.390Z,53.11
2022-09-25T13:32:55.006Z,52.57
2022-09-25T13:35:24.048Z,52.47
2022-09-25T13:37:54.422Z,52.98
2022-09-25T13:40:42.852Z,52.98
2022-09-25T13:43:21.661Z,53.25
2022-09-25T13:46:10.468Z,52.48
2022-09-25T13:48:38.874Z,52.73
2022-09-25T13:51:32.307Z,53.40
2022-09-25T13:54:05.102Z,53.96
2022-09-25T13:56:42.344Z,53.78
2022-09-25T13:59:10.923Z,52.98
2022-09-25T14:01:41.833Z,53.17
2022-09-25T14:04:16.041Z,52.90
2022-09-25T14:06:47.080Z,52.97
2022-09-25T14:09:21.033Z,52.89
2022-09-25T14:12:02.326Z,53.13
2022-09-25T14:14:33.853Z,53.30
2022-09-25T14:17:03.686Z,53.39
2022-09-25T14:19:35.220Z,53.64
2022-09-25T14:22:04.535Z,53.23
2022-09-25T14:24:32.961Z,53.30
2022-09-25T14:27:02.087Z,53.29
2022-09-25T14:30:12.955Z,53.74
2022-09-25T14:32:57.949Z,53.69
2022-09-25T14:35:44.844Z,53.77
2022-09-25T14:38:18.912Z,54.52
2022-09-25T14:41:04.444Z,54.74
2022-09-25T14:43:50.950Z,54.95
2022-09-25T14:46:26.139Z,54.73
2022-09-25T14:48:56.901Z,54.96
2022-09-25T14:51:27.375Z,54.83
2022-09-25T14:53:57.691Z,55.22
2022-09-25T14:56:26.489Z,55.25
2022-09-25T14:58:58.027Z,56.15
2022-09-25T15:01:26.653Z,55.76
2022-09-25T15:03:58.878Z,55.94
2022-09-25T15:06:29.067Z,56.52
2022-09-25T15:08:57.471Z,55.98
2022-09-25T15:11:30.034Z,55.96
2022-09-25T15:14:17.597Z,55.76
2022-09-25T15:17:04.325Z,56.14
2022-09-25T15:19:37.691Z,56.40
2022-09-25T15:22:16.231Z,56.27
2022-09-25T15:25:00.913Z,56.19
2022-09-25T15:27:29.674Z,56.22
2022-09-25T15:30:00.394Z,56.14
2022-09-25T15:32:49.256Z,56.51
2022-09-25T15:35:19.677Z,56.89
2022-09-25T15:37:48.596Z,57.11
2022-09-25T15:40:23.050Z,57.36
2022-09-25T15:42:51.669Z,57.25
2022-09-25T15:45:38.395Z,57.61
2022-09-25T15:48:12.020Z,58.01
2022-09-25T15:50:43.710Z,57.90
2022-09-25T15:53:18.899Z,57.85
2022-09-25T15:55:47.231Z,57.91
2022-09-25T15:58:17.382Z,58.18
2022-09-25T16:01:18.188Z,58.34
2022-09-25T16:04:09.963Z,58.30
2022-09-25T16:06:39.319Z,58.32
2022-09-25T16:12:23.659Z,58.79
2022-09-25T16:14:52.106Z,58.64
2022-09-25T16:17:23.662Z,58.82
2022-09-25T16:19:58.839Z,58.95
2022-09-25T16:22:27.211Z,59.34
2022-09-25T16:24:55.402Z,59.29
2022-09-25T16:27:28.956Z,59.54
2022-09-25T16:30:03.421Z,59.55
2022-09-25T16:32:32.533Z,59.68
2022-09-25T16:35:02.008Z,59.78
2022-09-25T16:38:11.433Z,59.77
2022-09-25T16:40:42.451Z,60.22
2022-09-25T16:43:35.688Z,61.35
2022-09-25T16:46:26.264Z,61.51
2022-09-25T16:49:14.995Z,62.74
2022-09-25T16:51:46.109Z,63.06
2022-09-25T16:54:16.051Z,63.54
2022-09-25T16:56:45.403Z,64.36
2022-09-25T16:59:16.656Z,63.44
2022-09-25T17:01:45.790Z,62.53
2022-09-25T17:04:15.845Z,62.36
2022-09-25T17:06:45.994Z,62.83
2022-09-25T17:09:15.763Z,63.37
2022-09-25T17:11:45.520Z,63.29
2022-09-25T17:14:20.769Z,65.46
2022-09-25T17:16:50.822Z,65.68
2022-09-25T17:19:19.479Z,64.59
2022-09-25T17:21:51.517Z,65.11
2022-09-25T17:24:21.548Z,65.01
2022-09-25T17:26:51.764Z,65.51
2022-09-25T17:29:20.437Z,64.48
2022-09-25T17:31:48.667Z,65.25
2022-09-25T17:34:18.125Z,65.05
2022-09-25T17:36:46.326Z,66.40
2022-09-25T17:39:14.643Z,65.15
2022-09-25T17:41:43.177Z,64.98
2022-09-25T17:44:14.323Z,65.37
2022-09-25T17:46:42.610Z,67.42
2022-09-25T17:49:11.650Z,67.66
2022-09-25T17:51:40.179Z,67.28
2022-09-25T17:54:09.642Z,67.21
2022-09-25T17:56:39.448Z,66.99
2022-09-25T17:59:09.230Z,66.43
2022-09-25T18:01:39.731Z,66.99
2022-09-25T18:04:20.326Z,66.76
2022-09-25T18:06:48.974Z,66.26
2022-09-25T18:09:17.233Z,66.28
2022-09-25T18:11:45.560Z,65.89
2022-09-25T18:14:14.550Z,65.66
2022-09-25T18:16:43.841Z,65.57
2022-09-25T18:19:37.775Z,65.35
2022-09-25T18:22:19.095Z,66.01
2022-09-25T18:24:48.359Z,66.02
2022-09-25T18:27:16.536Z,66.77
2022-09-25T18:29:45.876Z,66.70
2022-09-25T18:32:14.829Z,66.29
2022-09-25T18:34:43.385Z,66.17
2022-09-25T18:37:11.837Z,66.14
2022-09-25T18:39:40.074Z,67.68
2022-09-25T18:42:09.202Z,68.47
2022-09-25T18:44:42.701Z,68.97
2022-09-25T18:47:11.809Z,69.81
2022-09-25T18:49:40.081Z,68.79
2022-09-25T18:52:08.301Z,68.38
2022-09-25T18:54:36.435Z,67.32
2022-09-25T18:57:04.599Z,67.42
2022-09-25T18:59:32.822Z,67.74
2022-09-25T19:02:01.195Z,67.67
2022-09-25T19:04:29.591Z,67.39
2022-09-25T19:06:57.825Z,67.18
2022-09-25T19:09:27.837Z,68.88
2022-09-25T19:11:56.002Z,67.35
2022-09-25T19:14:24.308Z,68.48
2022-09-25T19:16:53.248Z,67.88
2022-09-25T19:19:21.408Z,68.22
2022-09-25T19:21:49.543Z,68.83
2022-09-25T19:24:18.514Z,68.71
2022-09-25T19:26:48.181Z,69.81
2022-09-25T19:29:16.419Z,69.69
2022-09-25T19:31:45.272Z,69.60
2022-09-25T19:34:13.698Z,70.14
2022-09-25T19:36:42.108Z,69.41
2022-09-25T19:39:10.311Z,69.99
2022-09-25T19:41:40.953Z,69.86
2022-09-25T19:44:14.318Z,70.00
2022-09-25T19:46:43.425Z,70.35
2022-09-25T19:49:12.973Z,70.43
2022-09-25T19:51:41.573Z,70.87
2022-09-25T19:54:10.862Z,71.07
2022-09-25T19:56:42.910Z,69.74
2022-09-25T19:59:15.233Z,70.65
2022-09-25T20:01:44.052Z,70.41
2022-09-25T20:04:18.115Z,70.53
2022-09-25T20:06:48.784Z,70.71
2022-09-25T20:09:17.354Z,70.42
2022-09-25T20:11:45.955Z,70.30
2022-09-25T20:14:14.199Z,70.37
2022-09-25T20:16:42.615Z,70.45
2022-09-25T20:19:10.771Z,70.45
2022-09-25T20:21:41.642Z,70.75
2022-09-25T20:24:09.920Z,70.47
2022-09-25T20:26:38.862Z,70.74
2022-09-25T20:29:08.995Z,70.14
2022-09-25T20:31:38.484Z,70.79
2022-09-25T20:34:06.965Z,70.61
2022-09-25T20:36:37.936Z,71.27
2022-09-25T20:39:06.513Z,71.75
2022-09-25T20:41:35.126Z,71.41
2022-09-25T20:44:03.868Z,70.98
2022-09-25T20:46:32.786Z,71.20
2022-09-25T20:49:02.128Z,71.40
2022-09-25T20:51:35.500Z,71.75
2022-09-25T20:54:07.414Z,71.81
2022-09-25T20:56:36.394Z,72.34
2022-09-25T20:59:05.054Z,71.94
2022-09-25T21:01:34.981Z,72.61
2022-09-25T21:04:04.353Z,71.85
2022-09-25T21:06:33.749Z,72.87
2022-09-25T21:09:03.633Z,74.45
2022-09-25T21:11:32.818Z,74.55
2022-09-25T21:14:05.527Z,73.42
2022-09-25T21:16:33.922Z,74.35
2022-09-25T21:19:04.474Z,74.81
2022-09-25T21:21:33.726Z,74.56
2022-09-25T21:24:02.734Z,73.47
2022-09-25T21:26:31.773Z,74.43
2022-09-25T21:29:01.412Z,74.78
2022-09-25T21:31:35.381Z,74.82
2022-09-25T21:34:03.840Z,74.86
2022-09-25T21:39:55.100Z,74.88
2022-09-25T21:42:23.310Z,74.37
2022-09-25T21:44:51.703Z,74.58
2022-09-25T21:47:20.148Z,74.74
2022-09-25T21:49:48.339Z,75.06
2022-09-25T21:52:16.403Z,75.92
2022-09-25T21:54:44.612Z,75.68
2022-09-25T21:57:12.752Z,76.46
2022-09-25T21:59:41.634Z,75.65
2022-09-25T22:02:10.064Z,75.51
2022-09-25T22:04:38.729Z,75.77
2022-09-25T22:07:06.940Z,75.03
2022-09-25T22:09:35.133Z,75.61
2022-09-25T22:12:03.352Z,75.49
2022-09-25T22:14:32.015Z,75.19
2022-09-25T22:17:00.279Z,75.09
2022-09-25T22:19:29.721Z,75.28
2022-09-25T22:21:59.015Z,75.47
2022-09-25T22:24:27.448Z,76.82
2022-09-25T22:26:55.920Z,76.83
2022-09-25T22:29:25.102Z,76.20
2022-09-25T22:31:53.611Z,76.21
2022-09-25T22:34:25.962Z,76.35
2022-09-25T22:36:59.466Z,75.70
2022-09-25T22:39:29.868Z,76.32
2022-09-25T22:41:58.440Z,76.41
2022-09-25T22:44:26.713Z,75.54
2022-09-25T22:46:55.769Z,76.18
2022-09-25T22:49:23.913Z,76.23
2022-09-25T22:51:52.103Z,76.28
2022-09-25T22:54:20.387Z,76.30
2022-09-25T22:56:48.779Z,76.29
2022-09-25T22:59:19.836Z,76.02
2022-09-25T23:01:49.493Z,76.64
2022-09-25T23:04:22.614Z,77.45
2022-09-25T23:06:51.201Z,76.46
2022-09-25T23:09:21.145Z,76.36
2022-09-25T23:11:49.415Z,76.23
2022-09-25T23:14:19.950Z,76.16
2022-09-25T23:16:49.185Z,76.54
2022-09-25T23:19:17.486Z,76.89
2022-09-25T23:21:45.685Z,77.36
2022-09-25T23:24:15.596Z,77.23
2022-09-25T23:26:43.939Z,77.03
2022-09-25T23:29:13.407Z,76.40
2022-09-25T23:31:42.467Z,76.97
2022-09-25T23:34:10.710Z,76.53
2022-09-25T23:36:39.048Z,76.43
2022-09-25T23:39:08.895Z,76.65
2022-09-25T23:41:40.276Z,76.24
2022-09-25T23:44:09.405Z,76.35
2022-09-25T23:46:39.325Z,76.62
2022-09-25T23:49:07.699Z,77.08
2022-09-25T23:51:35.842Z,76.45
2022-09-25T23:54:04.231Z,76.71
2022-09-25T23:56:33.476Z,77.20
2022-09-25T23:59:02.324Z,77.35
